createdAt,value
2019-03-03T00:01:02.263Z,5.20
2019-03-03T00:03:30.254Z,5.20
2019-03-03T00:05:58.119Z,5.30
2019-03-03T00:08:26.075Z,5.40
2019-03-03T00:10:53.945Z,5.40
2019-03-03T00:13:21.835Z,5.40
2019-03-03T00:15:49.679Z,5.50
2019-03-03T00:18:17.905Z,5.50
2019-03-03T00:20:45.994Z,5.60
2019-03-03T00:23:13.815Z,5.60
2019-03-03T00:25:41.649Z,5.60
2019-03-03T00:28:09.543Z,5.60
2019-03-03T00:30:37.667Z,5.60
2019-03-03T00:33:05.457Z,5.70
2019-03-03T00:35:33.358Z,5.70
2019-03-03T00:38:06.241Z,5.70
2019-03-03T00:40:43.119Z,5.70
2019-03-03T00:43:27.389Z,5.70
2019-03-03T00:46:13.480Z,5.70
2019-03-03T00:48:56.974Z,5.80
2019-03-03T00:51:42.791Z,5.80
2019-03-03T00:54:23.071Z,5.80
2019-03-03T00:56:56.086Z,5.80
2019-03-03T00:59:42.059Z,5.90
2019-03-03T01:02:16.339Z,5.80
2019-03-03T01:04:51.417Z,5.90
2019-03-03T01:07:43.419Z,5.90
2019-03-03T01:10:16.127Z,5.90
2019-03-03T01:13:01.915Z,5.90
2019-03-03T01:15:55.295Z,6.00
2019-03-03T01:18:36.658Z,6.00
2019-03-03T01:21:11.253Z,6.10
2019-03-03T01:23:56.765Z,6.20
2019-03-03T01:26:24.583Z,6.20
2019-03-03T01:28:52.475Z,6.20
2019-03-03T01:31:20.319Z,6.20
2019-03-03T01:33:48.210Z,6.20
2019-03-03T01:36:16.337Z,6.20
2019-03-03T01:38:44.390Z,6.20
2019-03-03T01:41:12.206Z,6.20
2019-03-03T01:43:40.005Z,6.20
2019-03-03T01:46:07.819Z,6.10
2019-03-03T01:48:35.721Z,6.10
2019-03-03T01:51:03.554Z,6.10
2019-03-03T01:53:31.446Z,6.20
2019-03-03T01:55:59.298Z,6.20
2019-03-03T01:58:27.286Z,6.20
2019-03-03T02:00:55.629Z,6.10
2019-03-03T02:03:23.506Z,6.20
2019-03-03T02:05:51.383Z,6.10
2019-03-03T02:08:19.242Z,6.20
2019-03-03T02:10:47.131Z,6.20
2019-03-03T02:13:14.895Z,6.20
2019-03-03T02:15:42.970Z,6.20
2019-03-03T02:18:10.897Z,6.20
2019-03-03T02:20:38.715Z,6.20
2019-03-03T02:23:06.633Z,6.20
2019-03-03T02:25:35.760Z,6.20
2019-03-03T02:28:03.713Z,6.30
2019-03-03T02:30:31.490Z,6.20
2019-03-03T02:32:59.361Z,6.20
2019-03-03T02:35:27.240Z,6.20
2019-03-03T02:37:55.006Z,6.30
2019-03-03T02:40:22.922Z,6.30
2019-03-03T02:42:50.854Z,6.40
2019-03-03T02:45:18.828Z,6.50
2019-03-03T02:47:46.935Z,6.50
2019-03-03T02:50:14.844Z,6.40
2019-03-03T02:52:42.870Z,6.40
2019-03-03T02:55:11.326Z,6.40
2019-03-03T02:57:39.258Z,6.40
2019-03-03T03:00:09.382Z,6.40
2019-03-03T03:02:45.734Z,6.40
2019-03-03T03:05:14.243Z,6.40
2019-03-03T03:07:50.019Z,6.40
2019-03-03T03:10:27.307Z,6.40
2019-03-03T03:13:03.066Z,6.40
2019-03-03T03:15:42.395Z,6.50
2019-03-03T03:18:29.434Z,6.40
2019-03-03T03:21:19.497Z,6.50
2019-03-03T03:23:53.155Z,6.50
2019-03-03T03:26:49.229Z,6.50
2019-03-03T03:29:31.859Z,6.50
2019-03-03T03:32:13.949Z,6.40
2019-03-03T03:35:05.577Z,6.50
2019-03-03T03:37:55.639Z,6.50
2019-03-03T03:40:41.499Z,6.50
2019-03-03T03:43:18.712Z,6.50
2019-03-03T03:45:58.273Z,6.50
2019-03-03T03:48:34.439Z,6.50
2019-03-03T03:51:20.085Z,6.50
2019-03-03T03:54:13.486Z,6.50
2019-03-03T03:57:00.469Z,6.60
2019-03-03T03:59:49.141Z,6.60
2019-03-03T04:02:35.127Z,6.60
2019-03-03T04:05:13.664Z,6.60
2019-03-03T04:07:59.815Z,6.60
2019-03-03T04:10:56.319Z,6.60
2019-03-03T04:13:43.931Z,6.60
2019-03-03T04:16:17.260Z,6.70
2019-03-03T04:18:58.820Z,6.70
2019-03-03T04:21:49.177Z,6.70
2019-03-03T04:24:29.671Z,6.80
2019-03-03T04:27:19.778Z,6.80
2019-03-03T04:29:57.759Z,6.90
2019-03-03T04:32:44.830Z,6.90
2019-03-03T04:35:35.786Z,6.90
2019-03-03T04:38:15.338Z,7.00
2019-03-03T04:41:08.453Z,7.00
2019-03-03T04:43:42.302Z,7.00
2019-03-03T04:46:17.947Z,7.00
2019-03-03T04:49:00.671Z,7.10
2019-03-03T04:51:54.834Z,7.10
2019-03-03T04:54:40.687Z,7.10
2019-03-03T04:57:20.261Z,7.20
2019-03-03T05:00:12.215Z,7.20
2019-03-03T05:03:02.408Z,7.20
2019-03-03T05:05:35.691Z,7.20
2019-03-03T05:08:28.891Z,7.20
2019-03-03T05:11:25.479Z,7.30
2019-03-03T05:14:11.807Z,7.30
2019-03-03T05:16:51.746Z,7.30
2019-03-03T05:19:25.157Z,7.30
2019-03-03T05:21:52.997Z,7.40
2019-03-03T05:24:21.153Z,7.40
2019-03-03T05:26:49.025Z,7.50
2019-03-03T05:29:17.113Z,7.50
2019-03-03T05:31:44.966Z,7.60
2019-03-03T05:34:12.750Z,7.60
2019-03-03T05:36:40.590Z,7.60
2019-03-03T05:39:08.766Z,7.60
2019-03-03T05:41:36.637Z,7.60
2019-03-03T05:44:04.528Z,7.60
2019-03-03T05:46:32.372Z,7.60
2019-03-03T05:49:00.254Z,7.70
2019-03-03T05:51:28.100Z,7.70
2019-03-03T05:53:56.021Z,7.70
2019-03-03T05:56:23.939Z,7.70
2019-03-03T05:58:51.830Z,7.70
2019-03-03T06:01:19.677Z,7.70
2019-03-03T06:03:47.633Z,7.80
2019-03-03T06:06:15.510Z,7.80
2019-03-03T06:08:43.399Z,7.80
2019-03-03T06:11:11.247Z,7.80
2019-03-03T06:13:39.139Z,7.90
2019-03-03T06:16:06.975Z,7.90
2019-03-03T06:18:34.794Z,7.90
2019-03-03T06:21:02.614Z,7.90
2019-03-03T06:23:30.503Z,8.00
2019-03-03T06:25:58.355Z,8.00
2019-03-03T06:28:26.121Z,8.10
2019-03-03T06:30:53.994Z,8.10
2019-03-03T06:33:21.780Z,8.20
2019-03-03T06:35:49.626Z,8.20
2019-03-03T06:38:17.746Z,8.20
2019-03-03T06:40:45.925Z,8.30
2019-03-03T06:43:13.696Z,8.30
2019-03-03T06:45:41.473Z,8.40
2019-03-03T06:48:09.266Z,8.40
2019-03-03T06:50:37.399Z,8.50
2019-03-03T06:53:05.215Z,8.60
2019-03-03T06:55:33.182Z,8.50
2019-03-03T06:58:01.021Z,8.60
2019-03-03T07:00:28.914Z,8.60
2019-03-03T07:02:56.775Z,8.70
2019-03-03T07:05:26.108Z,8.70
2019-03-03T07:07:54.155Z,8.80
2019-03-03T07:10:22.037Z,8.80
2019-03-03T07:12:49.876Z,8.90
2019-03-03T07:15:17.837Z,9.00
2019-03-03T07:17:45.616Z,9.00
2019-03-03T07:20:13.413Z,9.00
2019-03-03T07:22:41.336Z,9.10
2019-03-03T07:25:09.957Z,9.20
2019-03-03T07:27:37.961Z,9.20
2019-03-03T07:30:07.183Z,9.20
2019-03-03T07:32:37.010Z,9.20
2019-03-03T07:35:04.917Z,9.30
2019-03-03T07:37:32.743Z,9.40
2019-03-03T07:40:00.625Z,9.40
2019-03-03T07:42:28.408Z,9.50
2019-03-03T07:44:56.185Z,9.50
2019-03-03T07:47:24.310Z,9.60
2019-03-03T07:49:52.197Z,9.70
2019-03-03T07:52:20.046Z,9.70
2019-03-03T07:54:48.020Z,9.80
2019-03-03T07:57:15.804Z,9.80
2019-03-03T07:59:43.703Z,9.80
2019-03-03T08:02:11.606Z,9.90
2019-03-03T08:04:39.426Z,10.00
2019-03-03T08:07:07.268Z,10.00
2019-03-03T08:09:35.563Z,10.10
2019-03-03T08:12:03.343Z,10.20
2019-03-03T08:14:31.117Z,10.20
2019-03-03T08:16:58.954Z,10.20
2019-03-03T08:19:26.736Z,10.30
2019-03-03T08:21:54.533Z,10.30
2019-03-03T08:24:22.311Z,10.40
2019-03-03T08:26:50.103Z,10.50
2019-03-03T08:29:17.879Z,10.60
2019-03-03T08:31:45.680Z,10.70
2019-03-03T08:34:13.464Z,10.80
2019-03-03T08:36:41.300Z,10.90
2019-03-03T08:39:09.307Z,10.90
2019-03-03T08:41:39.647Z,11.00
2019-03-03T08:44:14.712Z,11.00
2019-03-03T08:47:01.715Z,10.90
2019-03-03T08:49:43.628Z,10.90
2019-03-03T08:52:16.530Z,10.80
2019-03-03T08:55:02.442Z,10.80
2019-03-03T08:57:48.543Z,10.80
2019-03-03T09:00:41.880Z,10.90
2019-03-03T09:03:28.919Z,10.90
2019-03-03T09:06:13.425Z,11.00
2019-03-03T09:08:46.532Z,11.00
2019-03-03T09:11:28.780Z,11.00
2019-03-03T09:14:05.430Z,11.00
2019-03-03T09:16:55.498Z,10.90
2019-03-03T09:19:37.906Z,10.90
2019-03-03T09:22:28.035Z,10.90
2019-03-03T09:25:04.884Z,11.00
2019-03-03T09:27:43.099Z,10.90
2019-03-03T09:30:30.507Z,10.90
2019-03-03T09:33:17.550Z,10.90
2019-03-03T09:35:55.746Z,10.90
2019-03-03T09:38:37.535Z,11.00
2019-03-03T09:41:28.382Z,11.20
2019-03-03T09:44:10.550Z,11.20
2019-03-03T09:46:56.443Z,11.30
2019-03-03T09:49:40.240Z,11.40
2019-03-03T09:52:33.342Z,11.50
2019-03-03T09:55:08.361Z,11.60
2019-03-03T09:58:04.489Z,11.70
2019-03-03T10:00:40.203Z,11.60
2019-03-03T10:03:15.300Z,11.60
2019-03-03T10:05:58.153Z,11.50
2019-03-03T10:08:41.444Z,11.50
2019-03-03T10:11:16.588Z,11.50
2019-03-03T10:13:52.165Z,11.60
2019-03-03T10:16:41.355Z,11.60
2019-03-03T10:19:34.501Z,11.60
2019-03-03T10:22:27.002Z,11.60
2019-03-03T10:25:00.598Z,11.70
2019-03-03T10:27:46.520Z,11.70
2019-03-03T10:30:32.666Z,11.80
2019-03-03T10:33:22.789Z,11.80
2019-03-03T10:35:57.694Z,11.70
2019-03-03T10:38:45.571Z,11.60
2019-03-03T10:41:23.019Z,11.60
2019-03-03T10:44:07.872Z,11.50
2019-03-03T10:47:08.016Z,11.50
2019-03-03T10:50:00.552Z,11.50
2019-03-03T10:52:41.379Z,11.40
2019-03-03T10:55:25.307Z,11.40
2019-03-03T10:58:07.115Z,11.40
2019-03-03T11:00:42.577Z,11.40
2019-03-03T11:03:23.915Z,11.40
2019-03-03T11:06:20.392Z,11.60
2019-03-03T11:09:07.562Z,11.70
2019-03-03T11:11:50.478Z,11.90
2019-03-03T11:14:30.355Z,12.00
2019-03-03T11:17:16.360Z,12.00
2019-03-03T11:19:54.631Z,12.00
2019-03-03T11:22:31.426Z,12.00
2019-03-03T11:25:27.380Z,12.00
2019-03-03T11:28:10.123Z,12.00
2019-03-03T11:31:15.419Z,11.90
2019-03-03T11:34:05.611Z,12.00
2019-03-03T11:36:41.240Z,12.10
2019-03-03T11:39:34.405Z,12.10
2019-03-03T11:42:24.491Z,12.20
2019-03-03T11:45:10.982Z,12.30
2019-03-03T11:48:04.675Z,12.20
2019-03-03T11:50:39.183Z,12.20
2019-03-03T11:53:26.731Z,12.20
2019-03-03T11:56:04.719Z,12.20
2019-03-03T11:58:51.863Z,12.20
2019-03-03T12:01:45.190Z,12.10
2019-03-03T12:04:21.482Z,11.90
2019-03-03T12:07:20.730Z,11.80
2019-03-03T12:09:55.328Z,11.80
2019-03-03T12:12:39.153Z,11.70
2019-03-03T12:15:11.930Z,11.70
2019-03-03T12:18:04.692Z,11.60
2019-03-03T12:20:41.746Z,11.50
2019-03-03T12:23:31.034Z,11.50
2019-03-03T12:26:19.778Z,11.40
2019-03-03T12:29:11.692Z,11.40
2019-03-03T12:31:59.546Z,11.40
2019-03-03T12:34:37.159Z,11.40
2019-03-03T12:37:20.922Z,11.40
2019-03-03T12:40:07.111Z,11.50
2019-03-03T12:42:56.381Z,11.60
2019-03-03T12:45:33.427Z,11.70
2019-03-03T12:48:23.568Z,11.70
2019-03-03T12:50:59.878Z,11.70
2019-03-03T12:53:43.955Z,11.80
2019-03-03T12:56:29.629Z,11.90
2019-03-03T12:59:09.074Z,11.90
2019-03-03T13:01:50.859Z,12.00
2019-03-03T13:04:36.835Z,12.00
2019-03-03T13:07:23.983Z,12.20
2019-03-03T13:10:06.899Z,12.10
2019-03-03T13:12:46.241Z,12.10
2019-03-03T13:15:32.273Z,11.90
2019-03-03T13:18:13.163Z,12.00
2019-03-03T13:21:09.368Z,11.90
2019-03-03T13:23:55.019Z,11.90
2019-03-03T13:26:35.385Z,11.80
2019-03-03T13:29:17.902Z,11.80
2019-03-03T13:31:52.806Z,11.80
2019-03-03T13:34:38.663Z,11.80
2019-03-03T13:37:38.148Z,11.70
2019-03-03T13:40:24.496Z,11.80
2019-03-03T13:42:56.459Z,11.80
2019-03-03T13:45:25.254Z,11.80
2019-03-03T13:47:53.397Z,11.80
2019-03-03T13:50:21.479Z,11.80
2019-03-03T13:52:49.368Z,11.80
2019-03-03T13:55:17.530Z,11.80
2019-03-03T13:57:45.756Z,11.90
2019-03-03T14:00:17.099Z,12.00
2019-03-03T14:02:44.992Z,12.10
2019-03-03T14:05:12.876Z,12.20
2019-03-03T14:07:40.822Z,12.20
2019-03-03T14:10:09.336Z,12.20
2019-03-03T14:12:38.466Z,12.30
2019-03-03T14:15:07.366Z,12.30
2019-03-03T14:17:35.160Z,12.30
2019-03-03T14:20:02.974Z,12.30
2019-03-03T14:22:30.862Z,12.30
2019-03-03T14:24:58.711Z,12.20
2019-03-03T14:27:26.622Z,12.20
2019-03-03T14:29:54.459Z,12.20
2019-03-03T14:32:22.292Z,12.10
2019-03-03T14:34:50.634Z,12.00
2019-03-03T14:37:18.473Z,11.90
2019-03-03T14:39:46.813Z,11.90
2019-03-03T14:42:15.100Z,11.90
2019-03-03T14:44:42.994Z,11.70
2019-03-03T14:47:10.835Z,11.60
2019-03-03T14:49:38.660Z,11.50
2019-03-03T14:52:06.463Z,11.40
2019-03-03T14:54:34.365Z,11.30
2019-03-03T14:57:02.269Z,11.30
2019-03-03T14:59:30.137Z,11.30
2019-03-03T15:01:57.938Z,11.30
2019-03-03T15:04:25.812Z,11.30
2019-03-03T15:06:53.793Z,11.20
2019-03-03T15:09:23.399Z,11.20
2019-03-03T15:11:51.267Z,11.10
2019-03-03T15:14:19.123Z,11.10
2019-03-03T15:16:46.993Z,11.00
2019-03-03T15:19:15.261Z,11.00
2019-03-03T15:21:43.138Z,10.90
2019-03-03T15:24:10.990Z,10.80
2019-03-03T15:26:39.064Z,10.80
2019-03-03T15:29:07.566Z,10.70
2019-03-03T15:31:37.941Z,10.70
2019-03-03T15:34:06.002Z,10.70
2019-03-03T15:36:33.840Z,10.60
2019-03-03T15:39:01.699Z,10.60
2019-03-03T15:41:29.575Z,10.50
2019-03-03T15:43:57.442Z,10.40
2019-03-03T15:46:26.198Z,10.40
2019-03-03T15:48:54.162Z,10.40
2019-03-03T15:51:22.405Z,10.40
2019-03-03T15:53:50.288Z,10.30
2019-03-03T15:56:18.346Z,10.30
2019-03-03T15:58:55.269Z,10.30
2019-03-03T16:01:16.042Z,10.20
2019-03-03T16:03:44.013Z,10.20
2019-03-03T16:06:11.827Z,10.20
2019-03-03T16:08:39.686Z,10.20
2019-03-03T16:11:07.599Z,10.10
2019-03-03T16:13:35.676Z,10.20
2019-03-03T16:16:05.105Z,10.10
2019-03-03T16:18:32.985Z,10.10
2019-03-03T16:21:00.894Z,10.10
2019-03-03T16:23:28.799Z,10.10
2019-03-03T16:25:56.632Z,10.00
2019-03-03T16:28:24.831Z,10.00
2019-03-03T16:30:52.671Z,10.00
2019-03-03T16:33:21.078Z,10.00
2019-03-03T16:35:49.459Z,9.90
2019-03-03T16:38:17.329Z,9.90
2019-03-03T16:40:46.171Z,9.90
2019-03-03T16:43:14.509Z,9.90
2019-03-03T16:45:42.390Z,9.90
2019-03-03T16:48:10.315Z,9.80
2019-03-03T16:50:38.716Z,9.80
2019-03-03T16:53:06.798Z,9.80
2019-03-03T16:55:34.663Z,9.80
2019-03-03T16:58:02.450Z,9.80
2019-03-03T17:00:30.600Z,9.80
2019-03-03T17:02:58.409Z,9.80
2019-03-03T17:05:26.263Z,9.90
2019-03-03T17:07:54.146Z,9.90
2019-03-03T17:10:22.058Z,9.90
2019-03-03T17:12:49.957Z,9.90
2019-03-03T17:15:18.704Z,9.90
2019-03-03T17:17:46.502Z,9.90
2019-03-03T17:20:14.354Z,9.90
2019-03-03T17:22:42.342Z,9.90
2019-03-03T17:25:11.260Z,9.90
2019-03-03T17:27:39.211Z,9.90
2019-03-03T17:30:08.347Z,9.90
2019-03-03T17:32:36.501Z,9.90
2019-03-03T17:35:04.455Z,9.90
2019-03-03T17:37:32.386Z,9.90
2019-03-03T17:40:00.312Z,9.90
2019-03-03T17:42:28.203Z,9.90
2019-03-03T17:44:56.098Z,9.90
2019-03-03T17:47:24.011Z,9.90
2019-03-03T17:49:51.859Z,10.10
2019-03-03T17:52:19.760Z,10.10
2019-03-03T17:54:47.870Z,10.20
2019-03-03T17:57:15.698Z,10.20
2019-03-03T17:59:43.547Z,10.30
2019-03-03T18:02:11.489Z,10.10
2019-03-03T18:04:39.411Z,10.10
2019-03-03T18:07:07.527Z,10.00
2019-03-03T18:09:35.333Z,10.00
2019-03-03T18:12:03.198Z,10.00
2019-03-03T18:14:31.041Z,10.00
2019-03-03T18:16:58.910Z,9.90
2019-03-03T18:19:26.800Z,10.00
2019-03-03T18:21:54.637Z,9.90
2019-03-03T18:24:22.527Z,10.00
2019-03-03T18:26:50.464Z,9.90
2019-03-03T18:29:18.262Z,9.90
2019-03-03T18:31:46.105Z,10.00
2019-03-03T18:34:14.005Z,10.00
2019-03-03T18:36:41.847Z,10.00
2019-03-03T18:39:09.807Z,10.00
2019-03-03T18:41:38.074Z,10.00
2019-03-03T18:44:06.351Z,10.00
2019-03-03T18:46:34.249Z,10.00
2019-03-03T18:49:02.158Z,10.00
2019-03-03T18:51:29.927Z,10.00
2019-03-03T18:53:57.711Z,10.00
2019-03-03T18:56:25.502Z,10.00
2019-03-03T18:58:53.395Z,10.00
2019-03-03T19:01:21.511Z,10.00
2019-03-03T19:03:49.331Z,10.00
2019-03-03T19:06:17.187Z,10.00
2019-03-03T19:08:45.746Z,10.00
2019-03-03T19:11:13.546Z,10.00
2019-03-03T19:13:41.410Z,10.10
2019-03-03T19:16:09.267Z,10.00
2019-03-03T19:18:37.158Z,10.10
2019-03-03T19:21:04.998Z,10.10
2019-03-03T19:23:32.901Z,10.10
2019-03-03T19:26:00.739Z,10.10
2019-03-03T19:28:28.556Z,10.10
2019-03-03T19:30:56.329Z,10.10
2019-03-03T19:33:26.454Z,10.10
2019-03-03T19:35:54.538Z,10.20
2019-03-03T19:38:22.345Z,10.20
2019-03-03T19:40:50.205Z,10.20
2019-03-03T19:43:18.074Z,10.10
2019-03-03T19:45:46.151Z,10.10
2019-03-03T19:48:14.583Z,10.20
2019-03-03T19:50:42.383Z,10.20
2019-03-03T19:53:10.462Z,10.20
2019-03-03T19:55:42.375Z,10.20
2019-03-03T19:58:10.283Z,10.10
2019-03-03T20:00:39.177Z,10.10
2019-03-03T20:03:07.720Z,10.10
2019-03-03T20:05:35.560Z,10.10
2019-03-03T20:08:04.280Z,10.20
2019-03-03T20:10:32.188Z,10.20
2019-03-03T20:13:00.068Z,10.20
2019-03-03T20:15:27.958Z,10.20
2019-03-03T20:17:56.813Z,10.20
2019-03-03T20:20:24.700Z,10.20
2019-03-03T20:22:52.612Z,10.30
2019-03-03T20:25:20.417Z,10.30
2019-03-03T20:27:48.266Z,10.30
2019-03-03T20:30:16.980Z,10.30
2019-03-03T20:32:44.846Z,10.30
2019-03-03T20:35:13.003Z,10.30
2019-03-03T20:37:40.870Z,10.30
2019-03-03T20:40:09.831Z,10.30
2019-03-03T20:42:37.628Z,10.30
2019-03-03T20:45:05.933Z,10.30
2019-03-03T20:47:33.780Z,10.40
2019-03-03T20:50:02.161Z,10.40
2019-03-03T20:52:29.930Z,10.30
2019-03-03T20:54:58.108Z,10.30
2019-03-03T20:57:25.972Z,10.30
2019-03-03T20:59:53.910Z,10.40
2019-03-03T21:02:21.967Z,10.40
2019-03-03T21:04:49.824Z,10.40
2019-03-03T21:07:17.635Z,10.40
2019-03-03T21:09:45.527Z,10.40
2019-03-03T21:12:13.383Z,10.40
2019-03-03T21:14:41.259Z,10.50
2019-03-03T21:17:09.135Z,10.50
2019-03-03T21:19:37.257Z,10.50
2019-03-03T21:22:05.042Z,10.60
2019-03-03T21:24:32.928Z,10.50
2019-03-03T21:27:00.779Z,10.50
2019-03-03T21:29:28.668Z,10.60
2019-03-03T21:31:56.511Z,10.50
2019-03-03T21:34:24.402Z,10.50
2019-03-03T21:36:52.255Z,10.50
2019-03-03T21:39:20.123Z,10.50
2019-03-03T21:41:48.004Z,10.50
2019-03-03T21:44:15.869Z,10.50
2019-03-03T21:46:43.818Z,10.60
2019-03-03T21:49:11.763Z,10.50
2019-03-03T21:51:39.570Z,10.60
2019-03-03T21:54:07.433Z,10.60
2019-03-03T21:56:35.316Z,10.50
2019-03-03T21:59:03.163Z,10.60
2019-03-03T22:01:31.026Z,10.60
2019-03-03T22:03:58.919Z,10.60
2019-03-03T22:06:26.782Z,10.60
2019-03-03T22:08:54.621Z,10.50
2019-03-03T22:11:22.506Z,10.60
2019-03-03T22:13:50.369Z,10.60
2019-03-03T22:16:18.255Z,10.50
2019-03-03T22:18:46.101Z,10.50
2019-03-03T22:21:13.990Z,10.50
2019-03-03T22:23:41.848Z,10.50
2019-03-03T22:26:09.712Z,10.40
2019-03-03T22:28:37.844Z,10.40
2019-03-03T22:31:05.665Z,10.30
2019-03-03T22:33:33.510Z,10.30
2019-03-03T22:36:01.467Z,10.30
2019-03-03T22:38:29.342Z,10.20
2019-03-03T22:40:57.223Z,10.20
2019-03-03T22:43:25.070Z,10.20
2019-03-03T22:45:52.962Z,10.20
2019-03-03T22:48:20.810Z,10.10
2019-03-03T22:50:48.694Z,10.10
2019-03-03T22:53:16.468Z,10.10
2019-03-03T22:55:44.417Z,10.10
2019-03-03T22:58:12.283Z,10.10
2019-03-03T23:01:04.041Z,10.10
2019-03-03T23:03:33.992Z,10.10
2019-03-03T23:06:07.283Z,10.10
2019-03-03T23:08:40.768Z,10.10
2019-03-03T23:11:21.771Z,10.10
2019-03-03T23:14:01.292Z,10.10
2019-03-03T23:16:51.613Z,10.10
2019-03-03T23:19:37.693Z,10.10
2019-03-03T23:22:23.840Z,10.10
2019-03-03T23:25:01.770Z,10.10
2019-03-03T23:27:29.602Z,10.10
2019-03-03T23:29:57.460Z,10.10
2019-03-03T23:32:25.728Z,10.10
2019-03-03T23:34:53.595Z,10.10
2019-03-03T23:37:21.497Z,10.10
2019-03-03T23:39:49.430Z,10.10
2019-03-03T23:42:17.661Z,10.10
2019-03-03T23:44:45.488Z,10.10
2019-03-03T23:47:13.354Z,10.10
2019-03-03T23:49:41.598Z,10.20
2019-03-03T23:52:09.407Z,10.20
2019-03-03T23:54:37.722Z,10.20
2019-03-03T23:57:05.551Z,10.20
2019-03-03T23:59:33.407Z,10.20
